sensor_id;sensor_type;location;lat;lon;timestamp;pressure;altitude;pressure_sealevel;temperature;humidity
43621;BME280;29213;50.770;7.298;2023-03-17T00:00:10;100355.75;;;5.68;48.28
43621;BME280;29213;50.770;7.298;2023-03-17T00:02:38;100227.75;;;4.82;48.59
43621;BME280;29213;50.770;7.298;2023-03-17T00:05:28;100353.66;;;5.52;48.49
43621;BME280;29213;50.770;7.298;2023-03-17T00:08:15;100353.34;;;5.45;48.77
43621;BME280;29213;50.770;7.298;2023-03-17T00:10:43;100259.66;;;4.79;48.96
43621;BME280;29213;50.770;7.298;2023-03-17T00:13:09;100346.16;;;5.47;48.77
43621;BME280;29213;50.770;7.298;2023-03-17T00:15:35;100305.50;;;5.19;48.85
43621;BME280;29213;50.770;7.298;2023-03-17T00:18:00;100358.38;;;5.39;49.01
43621;BME280;29213;50.770;7.298;2023-03-17T00:20:29;100312.28;;;5.12;48.95
43621;BME280;29213;50.770;7.298;2023-03-17T00:22:56;100359.34;;;5.47;48.89
43621;BME280;29213;50.770;7.298;2023-03-17T00:25:28;100351.69;;;5.44;48.83
43621;BME280;29213;50.770;7.298;2023-03-17T00:27:56;100353.66;;;5.42;48.93
43621;BME280;29213;50.770;7.298;2023-03-17T00:30:23;100358.63;;;5.35;49.04
43621;BME280;29213;50.770;7.298;2023-03-17T00:32:50;100353.34;;;5.35;49.07
43621;BME280;29213;50.770;7.298;2023-03-17T00:35:19;100343.75;;;5.34;49.03
43621;BME280;29213;50.770;7.298;2023-03-17T00:37:46;100346.94;;;5.28;49.15
43621;BME280;29213;50.770;7.298;2023-03-17T00:40:23;100346.25;;;5.36;49.01
43621;BME280;29213;50.770;7.298;2023-03-17T00:42:50;100293.09;;;5.09;49.03
43621;BME280;29213;50.770;7.298;2023-03-17T00:45:18;100333.06;;;5.36;49.02
43621;BME280;29213;50.770;7.298;2023-03-17T00:47:43;100289.31;;;5.02;48.77
43621;BME280;29213;50.770;7.298;2023-03-17T00:50:12;100354.75;;;5.40;48.90
43621;BME280;29213;50.770;7.298;2023-03-17T00:52:38;100259.66;;;4.79;48.88
43621;BME280;29213;50.770;7.298;2023-03-17T00:55:06;100340.66;;;5.19;48.82
43621;BME280;29213;50.770;7.298;2023-03-17T00:57:33;100378.09;;;5.34;48.76
43621;BME280;29213;50.770;7.298;2023-03-17T00:59:59;100376.00;;;5.38;48.71
43621;BME280;29213;50.770;7.298;2023-03-17T01:02:24;100350.13;;;5.22;48.95
43621;BME280;29213;50.770;7.298;2023-03-17T01:04:50;100325.19;;;5.05;48.88
43621;BME280;29213;50.770;7.298;2023-03-17T01:07:15;100342.13;;;5.02;48.94
43621;BME280;29213;50.770;7.298;2023-03-17T01:09:41;100320.88;;;5.04;48.69
43621;BME280;29213;50.770;7.298;2023-03-17T01:12:11;100303.63;;;5.00;48.57
43621;BME280;29213;50.770;7.298;2023-03-17T01:14:37;100335.25;;;5.31;48.27
43621;BME280;29213;50.770;7.298;2023-03-17T01:17:04;100384.81;;;5.58;48.34
43621;BME280;29213;50.770;7.298;2023-03-17T01:19:31;100366.72;;;5.54;48.26
43621;BME280;29213;50.770;7.298;2023-03-17T01:21:57;100353.50;;;5.44;48.47
43621;BME280;29213;50.770;7.298;2023-03-17T01:24:22;100339.28;;;5.35;48.56
43621;BME280;29213;50.770;7.298;2023-03-17T01:26:47;100352.91;;;5.40;48.31
43621;BME280;29213;50.770;7.298;2023-03-17T01:29:13;100343.34;;;5.39;48.53
43621;BME280;29213;50.770;7.298;2023-03-17T01:31:38;100362.13;;;5.56;48.33
43621;BME280;29213;50.770;7.298;2023-03-17T01:34:04;100315.50;;;5.25;48.33
43621;BME280;29213;50.770;7.298;2023-03-17T01:36:30;100361.16;;;5.57;48.27
43621;BME280;29213;50.770;7.298;2023-03-17T01:38:55;100343.34;;;5.49;48.53
43621;BME280;29213;50.770;7.298;2023-03-17T01:41:21;100295.72;;;5.09;48.42
43621;BME280;29213;50.770;7.298;2023-03-17T01:43:46;100328.44;;;5.28;48.53
43621;BME280;29213;50.770;7.298;2023-03-17T01:46:32;100356.72;;;5.47;48.63
43621;BME280;29213;50.770;7.298;2023-03-17T01:51:54;100352.09;;;5.40;48.82
43621;BME280;29213;50.770;7.298;2023-03-17T01:56:58;100332.19;;;5.26;48.74
43621;BME280;29213;50.770;7.298;2023-03-17T01:59:32;100276.66;;;4.96;48.96
43621;BME280;29213;50.770;7.298;2023-03-17T02:02:03;100314.25;;;5.19;49.19
43621;BME280;29213;50.770;7.298;2023-03-17T02:04:30;100238.97;;;4.84;48.95
43621;BME280;29213;50.770;7.298;2023-03-17T02:06:57;100314.41;;;5.28;48.91
43621;BME280;29213;50.770;7.298;2023-03-17T02:09:22;100245.13;;;4.85;49.13
43621;BME280;29213;50.770;7.298;2023-03-17T02:11:48;100282.53;;;5.09;48.96
43621;BME280;29213;50.770;7.298;2023-03-17T02:14:15;100318.16;;;5.35;48.76
43621;BME280;29213;50.770;7.298;2023-03-17T02:16:43;100305.25;;;5.32;48.70
43621;BME280;29213;50.770;7.298;2023-03-17T02:19:09;100221.78;;;4.80;48.68
43621;BME280;29213;50.770;7.298;2023-03-17T02:21:45;100235.09;;;4.78;48.92
43621;BME280;29213;50.770;7.298;2023-03-17T02:26:50;100294.78;;;5.20;49.02
43621;BME280;29213;50.770;7.298;2023-03-17T02:29:20;100281.44;;;5.12;49.06
43621;BME280;29213;50.770;7.298;2023-03-17T02:31:45;100225.78;;;4.84;49.10
43621;BME280;29213;50.770;7.298;2023-03-17T02:34:11;100233.34;;;4.99;48.74
43621;BME280;29213;50.770;7.298;2023-03-17T02:36:36;100265.44;;;5.04;48.86
43621;BME280;29213;50.770;7.298;2023-03-17T02:39:02;100282.28;;;5.22;48.82
43621;BME280;29213;50.770;7.298;2023-03-17T02:41:28;100277.56;;;5.26;48.90
43621;BME280;29213;50.770;7.298;2023-03-17T02:43:54;100265.75;;;5.20;48.75
43621;BME280;29213;50.770;7.298;2023-03-17T02:46:19;100277.97;;;5.21;48.97
43621;BME280;29213;50.770;7.298;2023-03-17T02:48:45;100208.97;;;4.75;49.01
43621;BME280;29213;50.770;7.298;2023-03-17T02:51:11;100200.81;;;4.78;48.96
43621;BME280;29213;50.770;7.298;2023-03-17T02:53:36;100276.88;;;5.14;49.20
43621;BME280;29213;50.770;7.298;2023-03-17T02:56:02;100258.59;;;4.91;49.11
43621;BME280;29213;50.770;7.298;2023-03-17T02:58:28;100233.44;;;4.87;48.75
43621;BME280;29213;50.770;7.298;2023-03-17T03:00:53;100252.38;;;5.12;48.62
43621;BME280;29213;50.770;7.298;2023-03-17T03:03:19;100250.72;;;5.01;48.57
43621;BME280;29213;50.770;7.298;2023-03-17T03:05:44;100236.53;;;4.92;48.46
43621;BME280;29213;50.770;7.298;2023-03-17T03:08:10;100228.59;;;4.92;48.56
43621;BME280;29213;50.770;7.298;2023-03-17T03:10:35;100224.44;;;4.90;48.82
43621;BME280;29213;50.770;7.298;2023-03-17T03:13:01;100245.25;;;4.83;49.16
43621;BME280;29213;50.770;7.298;2023-03-17T03:15:26;100191.75;;;4.40;49.42
43621;BME280;29213;50.770;7.298;2023-03-17T03:17:51;100222.84;;;4.67;49.31
43621;BME280;29213;50.770;7.298;2023-03-17T03:20:17;100273.34;;;4.94;49.34
43621;BME280;29213;50.770;7.298;2023-03-17T03:22:42;100220.72;;;4.61;49.33
43621;BME280;29213;50.770;7.298;2023-03-17T03:25:08;100277.00;;;5.13;48.94
43621;BME280;29213;50.770;7.298;2023-03-17T03:27:34;100282.41;;;5.21;48.83
43621;BME280;29213;50.770;7.298;2023-03-17T03:30:00;100253.09;;;5.14;48.44
43621;BME280;29213;50.770;7.298;2023-03-17T03:32:26;100219.59;;;4.95;48.64
43621;BME280;29213;50.770;7.298;2023-03-17T03:34:52;100274.41;;;5.32;48.38
43621;BME280;29213;50.770;7.298;2023-03-17T03:37:17;100242.09;;;4.99;47.97
43621;BME280;29213;50.770;7.298;2023-03-17T03:39:43;100287.00;;;5.29;48.10
43621;BME280;29213;50.770;7.298;2023-03-17T03:42:08;100269.81;;;5.25;49.27
43621;BME280;29213;50.770;7.298;2023-03-17T03:44:34;100243.94;;;5.18;48.09
43621;BME280;29213;50.770;7.298;2023-03-17T03:46:59;100167.72;;;4.64;47.95
43621;BME280;29213;50.770;7.298;2023-03-17T03:49:25;100216.94;;;4.95;47.74
43621;BME280;29213;50.770;7.298;2023-03-17T03:51:51;100272.44;;;5.34;47.63
43621;BME280;29213;50.770;7.298;2023-03-17T03:54:16;100229.19;;;5.06;47.71
43621;BME280;29213;50.770;7.298;2023-03-17T03:56:41;100250.16;;;5.07;47.85
43621;BME280;29213;50.770;7.298;2023-03-17T03:59:07;100272.69;;;5.12;47.77
43621;BME280;29213;50.770;7.298;2023-03-17T04:01:34;100278.97;;;5.20;47.96
43621;BME280;29213;50.770;7.298;2023-03-17T04:03:59;100269.94;;;5.23;47.88
43621;BME280;29213;50.770;7.298;2023-03-17T04:06:25;100239.72;;;4.96;47.94
43621;BME280;29213;50.770;7.298;2023-03-17T04:08:50;100227.34;;;4.87;48.07
43621;BME280;29213;50.770;7.298;2023-03-17T04:11:16;100247.34;;;4.89;48.18
43621;BME280;29213;50.770;7.298;2023-03-17T04:13:42;100240.94;;;4.82;48.46
43621;BME280;29213;50.770;7.298;2023-03-17T04:16:07;100216.44;;;4.60;48.18
43621;BME280;29213;50.770;7.298;2023-03-17T04:18:33;100247.84;;;4.73;48.76
43621;BME280;29213;50.770;7.298;2023-03-17T04:20:59;100237.53;;;4.60;48.84
43621;BME280;29213;50.770;7.298;2023-03-17T04:23:26;100272.34;;;4.85;48.90
43621;BME280;29213;50.770;7.298;2023-03-17T04:25:52;100274.00;;;4.76;49.13
43621;BME280;29213;50.770;7.298;2023-03-17T04:28:19;100217.44;;;4.38;49.25
43621;BME280;29213;50.770;7.298;2023-03-17T04:30:45;100293.47;;;4.85;49.02
43621;BME280;29213;50.770;7.298;2023-03-17T04:33:10;100272.34;;;4.85;48.95
43621;BME280;29213;50.770;7.298;2023-03-17T04:35:36;100259.59;;;4.90;49.45
43621;BME280;29213;50.770;7.298;2023-03-17T04:38:01;100251.25;;;4.85;49.16
43621;BME280;29213;50.770;7.298;2023-03-17T04:40:27;100265.84;;;4.99;49.58
43621;BME280;29213;50.770;7.298;2023-03-17T04:42:52;100294.38;;;5.15;49.74
43621;BME280;29213;50.770;7.298;2023-03-17T04:45:18;100287.41;;;5.04;48.76
43621;BME280;29213;50.770;7.298;2023-03-17T04:47:44;100219.78;;;4.62;49.22
43621;BME280;29213;50.770;7.298;2023-03-17T04:50:11;100293.25;;;5.08;48.77
43621;BME280;29213;50.770;7.298;2023-03-17T04:52:37;100297.56;;;5.09;49.07
43621;BME280;29213;50.770;7.298;2023-03-17T04:55:04;100302.13;;;5.07;49.16
43621;BME280;29213;50.770;7.298;2023-03-17T04:57:31;100181.75;;;4.34;49.20
43621;BME280;29213;50.770;7.298;2023-03-17T04:59:56;100233.78;;;4.63;48.95
43621;BME280;29213;50.770;7.298;2023-03-17T05:02:22;100207.91;;;4.47;49.13
43621;BME280;29213;50.770;7.298;2023-03-17T05:04:47;100214.97;;;4.46;49.55
43621;BME280;29213;50.770;7.298;2023-03-17T05:07:13;100276.22;;;4.81;49.98
43621;BME280;29213;50.770;7.298;2023-03-17T05:09:38;100232.44;;;4.47;49.49
43621;BME280;29213;50.770;7.298;2023-03-17T05:12:04;100251.56;;;4.61;50.01
43621;BME280;29213;50.770;7.298;2023-03-17T05:14:30;100211.41;;;4.26;49.95
43621;BME280;29213;50.770;7.298;2023-03-17T05:16:55;100226.97;;;4.29;50.37
43621;BME280;29213;50.770;7.298;2023-03-17T05:19:21;100280.84;;;4.58;50.10
43621;BME280;29213;50.770;7.298;2023-03-17T05:21:46;100275.84;;;4.54;50.12
43621;BME280;29213;50.770;7.298;2023-03-17T05:24:12;100244.06;;;4.35;50.34
43621;BME280;29213;50.770;7.298;2023-03-17T05:26:38;100212.34;;;4.15;50.18
43621;BME280;29213;50.770;7.298;2023-03-17T05:29:04;100275.22;;;4.51;50.14
43621;BME280;29213;50.770;7.298;2023-03-17T05:31:29;100211.28;;;4.06;50.53
43621;BME280;29213;50.770;7.298;2023-03-17T05:33:56;100201.06;;;3.82;50.52
43621;BME280;29213;50.770;7.298;2023-03-17T05:36:21;100268.38;;;4.17;50.31
43621;BME280;29213;50.770;7.298;2023-03-17T05:38:46;100281.75;;;4.25;50.61
43621;BME280;29213;50.770;7.298;2023-03-17T05:41:12;100231.06;;;3.91;50.71
43621;BME280;29213;50.770;7.298;2023-03-17T05:43:37;100239.59;;;4.04;50.41
43621;BME280;29213;50.770;7.298;2023-03-17T05:46:03;100269.16;;;4.29;50.49
43621;BME280;29213;50.770;7.298;2023-03-17T05:48:30;100267.91;;;4.33;50.70
43621;BME280;29213;50.770;7.298;2023-03-17T05:50:56;100223.66;;;4.06;50.40
43621;BME280;29213;50.770;7.298;2023-03-17T05:53:21;100238.53;;;4.16;50.31
43621;BME280;29213;50.770;7.298;2023-03-17T05:55:47;100247.28;;;4.17;50.62
43621;BME280;29213;50.770;7.298;2023-03-17T05:58:13;100232.81;;;4.11;50.53
43621;BME280;29213;50.770;7.298;2023-03-17T06:00:42;100231.47;;;4.17;50.05
43621;BME280;29213;50.770;7.298;2023-03-17T06:03:08;100241.06;;;4.18;50.18
43621;BME280;29213;50.770;7.298;2023-03-17T06:05:34;100151.78;;;3.51;50.47
43621;BME280;29213;50.770;7.298;2023-03-17T06:08:00;100233.88;;;3.99;50.50
43621;BME280;29213;50.770;7.298;2023-03-17T06:10:25;100256.31;;;4.14;50.70
43621;BME280;29213;50.770;7.298;2023-03-17T06:12:51;100220.38;;;3.92;50.60
43621;BME280;29213;50.770;7.298;2023-03-17T06:15:17;100226.38;;;3.94;50.40
43621;BME280;29213;50.770;7.298;2023-03-17T06:17:43;100225.50;;;3.94;50.54
43621;BME280;29213;50.770;7.298;2023-03-17T06:20:09;100209.66;;;3.84;50.80
43621;BME280;29213;50.770;7.298;2023-03-17T06:22:34;100216.13;;;3.80;50.97
43621;BME280;29213;50.770;7.298;2023-03-17T06:25:01;100236.19;;;3.92;50.91
43621;BME280;29213;50.770;7.298;2023-03-17T06:27:26;100235.00;;;4.06;50.96
43621;BME280;29213;50.770;7.298;2023-03-17T06:29:52;100274.06;;;4.43;50.49
43621;BME280;29213;50.770;7.298;2023-03-17T06:32:17;100246.44;;;4.38;50.28
43621;BME280;29213;50.770;7.298;2023-03-17T06:34:43;100159.59;;;3.84;50.03
43621;BME280;29213;50.770;7.298;2023-03-17T06:37:08;100184.00;;;4.07;50.13
43621;BME280;29213;50.770;7.298;2023-03-17T06:39:35;100274.75;;;4.57;50.14
43621;BME280;29213;50.770;7.298;2023-03-17T06:42:02;100240.22;;;4.49;50.05
43621;BME280;29213;50.770;7.298;2023-03-17T06:44:27;100239.25;;;4.50;49.95
43621;BME280;29213;50.770;7.298;2023-03-17T06:46:53;100245.84;;;4.55;49.88
43621;BME280;29213;50.770;7.298;2023-03-17T06:49:18;100190.47;;;4.34;49.71
43621;BME280;29213;50.770;7.298;2023-03-17T06:51:43;100209.56;;;4.48;49.93
43621;BME280;29213;50.770;7.298;2023-03-17T06:54:09;100206.72;;;4.61;49.40
43621;BME280;29213;50.770;7.298;2023-03-17T06:56:35;100200.03;;;4.57;49.40
43621;BME280;29213;50.770;7.298;2023-03-17T06:59:00;100149.69;;;4.28;49.57
43621;BME280;29213;50.770;7.298;2023-03-17T07:01:26;100210.22;;;4.71;49.21
43621;BME280;29213;50.770;7.298;2023-03-17T07:03:52;100216.22;;;4.83;49.83
43621;BME280;29213;50.770;7.298;2023-03-17T07:06:17;100207.38;;;4.94;49.32
43621;BME280;29213;50.770;7.298;2023-03-17T07:08:43;100218.50;;;5.07;48.93
43621;BME280;29213;50.770;7.298;2023-03-17T07:11:10;100217.25;;;5.21;48.73
43621;BME280;29213;50.770;7.298;2023-03-17T07:13:35;100202.38;;;5.20;48.50
43621;BME280;29213;50.770;7.298;2023-03-17T07:16:03;100162.06;;;4.99;48.41
43621;BME280;29213;50.770;7.298;2023-03-17T07:18:29;100258.84;;;5.69;48.43
43621;BME280;29213;50.770;7.298;2023-03-17T07:20:59;100253.69;;;5.87;48.17
43621;BME280;29213;50.770;7.298;2023-03-17T07:23:26;100254.09;;;5.92;47.76
43621;BME280;29213;50.770;7.298;2023-03-17T07:25:52;100220.84;;;5.70;47.66
43621;BME280;29213;50.770;7.298;2023-03-17T07:28:18;100264.09;;;5.98;47.68
43621;BME280;29213;50.770;7.298;2023-03-17T07:30:47;100181.78;;;5.63;47.27
43621;BME280;29213;50.770;7.298;2023-03-17T07:33:13;100193.88;;;5.66;47.25
43621;BME280;29213;50.770;7.298;2023-03-17T07:35:38;100196.41;;;5.68;47.32
43621;BME280;29213;50.770;7.298;2023-03-17T07:38:04;100187.63;;;5.67;47.22
43621;BME280;29213;50.770;7.298;2023-03-17T07:40:30;100248.19;;;6.18;47.03
43621;BME280;29213;50.770;7.298;2023-03-17T07:42:55;100197.47;;;5.85;46.89
43621;BME280;29213;50.770;7.298;2023-03-17T07:45:21;100189.53;;;5.95;47.30
43621;BME280;29213;50.770;7.298;2023-03-17T07:47:47;100193.00;;;6.05;46.85
43621;BME280;29213;50.770;7.298;2023-03-17T07:50:12;100188.78;;;6.12;46.74
43621;BME280;29213;50.770;7.298;2023-03-17T07:52:38;100186.78;;;6.24;46.70
43621;BME280;29213;50.770;7.298;2023-03-17T07:55:04;100154.56;;;6.11;46.23
43621;BME280;29213;50.770;7.298;2023-03-17T07:57:33;100210.22;;;6.57;46.33
43621;BME280;29213;50.770;7.298;2023-03-17T07:59:58;100240.53;;;6.91;46.02
43621;BME280;29213;50.770;7.298;2023-03-17T08:02:24;100177.28;;;6.69;45.71
43621;BME280;29213;50.770;7.298;2023-03-17T08:04:50;100208.22;;;6.87;45.89
43621;BME280;29213;50.770;7.298;2023-03-17T08:07:15;100221.19;;;7.08;45.54
43621;BME280;29213;50.770;7.298;2023-03-17T08:09:41;100047.00;;;5.83;45.51
43621;BME280;29213;50.770;7.298;2023-03-17T08:12:18;99965.78;;;5.47;45.24
43621;BME280;29213;50.770;7.298;2023-03-17T08:14:52;100230.50;;;7.13;45.69
43621;BME280;29213;50.770;7.298;2023-03-17T08:17:17;100181.09;;;7.03;45.49
43621;BME280;29213;50.770;7.298;2023-03-17T08:19:43;100221.34;;;7.43;45.32
43621;BME280;29213;50.770;7.298;2023-03-17T08:22:09;100225.75;;;7.53;44.72
43621;BME280;29213;50.770;7.298;2023-03-17T08:24:35;100227.31;;;7.63;45.00
43621;BME280;29213;50.770;7.298;2023-03-17T08:27:05;100225.56;;;7.72;44.79
43621;BME280;29213;50.770;7.298;2023-03-17T08:29:32;100196.88;;;7.68;44.65
43621;BME280;29213;50.770;7.298;2023-03-17T08:31:57;100213.03;;;7.83;44.44
43621;BME280;29213;50.770;7.298;2023-03-17T08:34:23;100190.13;;;7.73;44.01
43621;BME280;29213;50.770;7.298;2023-03-17T08:36:49;100176.41;;;7.78;44.22
43621;BME280;29213;50.770;7.298;2023-03-17T08:39:16;100214.28;;;8.15;43.32
43621;BME280;29213;50.770;7.298;2023-03-17T08:41:41;100216.50;;;8.28;43.44
43621;BME280;29213;50.770;7.298;2023-03-17T08:44:07;100171.22;;;8.21;43.20
43621;BME280;29213;50.770;7.298;2023-03-17T08:46:33;100163.31;;;8.29;42.59
43621;BME280;29213;50.770;7.298;2023-03-17T08:49:00;100170.19;;;8.49;44.93
43621;BME280;29213;50.770;7.298;2023-03-17T08:51:29;100147.34;;;8.81;41.73
43621;BME280;29213;50.770;7.298;2023-03-17T08:53:55;100183.09;;;9.12;41.58
43621;BME280;29213;50.770;7.298;2023-03-17T08:56:21;100208.25;;;9.51;41.27
43621;BME280;29213;50.770;7.298;2023-03-17T08:58:47;100164.19;;;9.31;41.10
43621;BME280;29213;50.770;7.298;2023-03-17T09:01:13;100193.44;;;9.65;40.02
43621;BME280;29213;50.770;7.298;2023-03-17T09:03:39;100076.34;;;9.00;40.57
43621;BME280;29213;50.770;7.298;2023-03-17T09:06:07;100200.91;;;9.86;40.33
43621;BME280;29213;50.770;7.298;2023-03-17T09:08:35;100198.88;;;9.96;40.58
43621;BME280;29213;50.770;7.298;2023-03-17T09:11:07;100125.97;;;9.66;40.48
43621;BME280;29213;50.770;7.298;2023-03-17T09:13:34;100155.69;;;9.94;40.24
43621;BME280;29213;50.770;7.298;2023-03-17T09:16:02;100130.44;;;9.73;39.21
43621;BME280;29213;50.770;7.298;2023-03-17T09:18:28;100185.38;;;10.14;39.21
43621;BME280;29213;50.770;7.298;2023-03-17T09:20:55;100084.44;;;9.40;39.38
43621;BME280;29213;50.770;7.298;2023-03-17T09:23:22;100179.25;;;10.06;39.40
43621;BME280;29213;50.770;7.298;2023-03-17T09:25:47;100114.81;;;9.79;39.52
43621;BME280;29213;50.770;7.298;2023-03-17T09:28:13;100154.47;;;9.97;39.12
43621;BME280;29213;50.770;7.298;2023-03-17T09:30:41;100214.25;;;10.34;39.02
43621;BME280;29213;50.770;7.298;2023-03-17T09:33:09;100114.81;;;9.70;39.44
43621;BME280;29213;50.770;7.298;2023-03-17T09:35:36;100165.31;;;9.87;39.26
43621;BME280;29213;50.770;7.298;2023-03-17T09:38:01;100191.69;;;10.13;39.49
43621;BME280;29213;50.770;7.298;2023-03-17T09:40:48;100130.72;;;9.95;39.07
43621;BME280;29213;50.770;7.298;2023-03-17T09:45:43;100183.97;;;10.35;38.52
43621;BME280;29213;50.770;7.298;2023-03-17T09:48:23;100217.09;;;10.73;39.14
43621;BME280;29213;50.770;7.298;2023-03-17T09:50:55;100174.56;;;10.56;39.13
43621;BME280;29213;50.770;7.298;2023-03-17T09:56:12;100188.50;;;10.98;38.82
43621;BME280;29213;50.770;7.298;2023-03-17T09:58:43;100207.78;;;11.08;38.12
43621;BME280;29213;50.770;7.298;2023-03-17T10:01:11;100052.50;;;10.13;38.11
43621;BME280;29213;50.770;7.298;2023-03-17T10:03:37;100125.59;;;10.65;38.65
43621;BME280;29213;50.770;7.298;2023-03-17T10:09:09;100206.72;;;11.18;38.00
43621;BME280;29213;50.770;7.298;2023-03-17T10:11:42;100199.41;;;11.12;38.39
43621;BME280;29213;50.770;7.298;2023-03-17T10:19:22;100197.00;;;11.25;38.74
43621;BME280;29213;50.770;7.298;2023-03-17T10:22:28;100211.25;;;11.56;38.67
43621;BME280;29213;50.770;7.298;2023-03-17T10:25:05;100186.53;;;11.62;38.53
43621;BME280;29213;50.770;7.298;2023-03-17T10:27:35;100174.72;;;11.56;37.41
43621;BME280;29213;50.770;7.298;2023-03-17T10:30:01;100156.41;;;11.38;37.45
43621;BME280;29213;50.770;7.298;2023-03-17T10:32:38;100076.59;;;10.98;37.79
43621;BME280;29213;50.770;7.298;2023-03-17T10:35:04;100182.06;;;11.77;37.90
43621;BME280;29213;50.770;7.298;2023-03-17T10:37:29;100164.91;;;11.72;37.32
43621;BME280;29213;50.770;7.298;2023-03-17T10:40:03;100205.50;;;12.21;37.47
43621;BME280;29213;50.770;7.298;2023-03-17T10:42:30;100209.91;;;12.43;37.39
43621;BME280;29213;50.770;7.298;2023-03-17T10:45:15;100177.66;;;12.45;36.68
43621;BME280;29213;50.770;7.298;2023-03-17T10:47:46;100114.50;;;11.92;36.82
43621;BME280;29213;50.770;7.298;2023-03-17T10:52:47;100204.75;;;12.79;36.31
43621;BME280;29213;50.770;7.298;2023-03-17T10:55:19;100109.47;;;12.12;36.08
43621;BME280;29213;50.770;7.298;2023-03-17T11:00:29;100140.31;;;12.30;36.33
43621;BME280;29213;50.770;7.298;2023-03-17T11:02:58;100183.34;;;12.57;36.32
43621;BME280;29213;50.770;7.298;2023-03-17T11:05:26;100125.38;;;12.36;36.96
43621;BME280;29213;50.770;7.298;2023-03-17T11:08:32;100174.88;;;12.90;37.04
43621;BME280;29213;50.770;7.298;2023-03-17T11:11:07;100144.06;;;12.73;36.48
43621;BME280;29213;50.770;7.298;2023-03-17T11:13:33;100161.00;;;13.02;36.19
43621;BME280;29213;50.770;7.298;2023-03-17T11:16:17;100165.03;;;12.91;36.58
43621;BME280;29213;50.770;7.298;2023-03-17T11:18:46;100123.09;;;12.69;36.43
43621;BME280;29213;50.770;7.298;2023-03-17T11:21:29;100139.44;;;12.81;36.20
43621;BME280;29213;50.770;7.298;2023-03-17T11:24:06;100137.59;;;12.82;36.67
43621;BME280;29213;50.770;7.298;2023-03-17T11:26:54;100148.03;;;12.99;36.19
43621;BME280;29213;50.770;7.298;2023-03-17T11:29:47;100160.13;;;12.94;35.96
43621;BME280;29213;50.770;7.298;2023-03-17T11:41:07;100148.75;;;13.29;36.72
43621;BME280;29213;50.770;7.298;2023-03-17T11:43:46;100126.97;;;13.32;36.40
43621;BME280;29213;50.770;7.298;2023-03-17T11:46:20;100110.13;;;13.10;36.08
43621;BME280;29213;50.770;7.298;2023-03-17T11:49:13;100113.16;;;12.85;36.38
43621;BME280;29213;50.770;7.298;2023-03-17T11:52:02;100082.69;;;12.58;36.23
43621;BME280;29213;50.770;7.298;2023-03-17T11:57:02;100080.03;;;12.79;37.03
43621;BME280;29213;50.770;7.298;2023-03-17T11:59:38;100081.81;;;12.72;36.23
43621;BME280;29213;50.770;7.298;2023-03-17T12:02:22;100079.56;;;12.76;36.44
43621;BME280;29213;50.770;7.298;2023-03-17T12:04:55;100115.78;;;13.00;36.34
43621;BME280;29213;50.770;7.298;2023-03-17T12:07:25;100063.72;;;12.74;36.00
43621;BME280;29213;50.770;7.298;2023-03-17T12:10:02;100134.00;;;13.12;36.56
43621;BME280;29213;50.770;7.298;2023-03-17T12:12:43;100121.66;;;13.11;37.06
43621;BME280;29213;50.770;7.298;2023-03-17T12:15:18;100101.91;;;12.90;36.17
43621;BME280;29213;50.770;7.298;2023-03-17T12:17:51;100096.06;;;12.79;36.58
43621;BME280;29213;50.770;7.298;2023-03-17T12:20:28;100107.69;;;12.93;36.40
43621;BME280;29213;50.770;7.298;2023-03-17T12:23:03;100072.25;;;12.85;36.28
43621;BME280;29213;50.770;7.298;2023-03-17T12:25:39;100127.81;;;13.11;36.17
43621;BME280;29213;50.770;7.298;2023-03-17T12:28:25;100091.84;;;12.70;36.22
43621;BME280;29213;50.770;7.298;2023-03-17T12:31:00;100047.13;;;12.57;36.70
43621;BME280;29213;50.770;7.298;2023-03-17T12:36:17;100095.97;;;13.38;36.46
43621;BME280;29213;50.770;7.298;2023-03-17T12:38:52;100100.59;;;13.58;36.58
43621;BME280;29213;50.770;7.298;2023-03-17T12:44:15;100117.66;;;13.85;35.70
43621;BME280;29213;50.770;7.298;2023-03-17T12:47:14;100115.88;;;13.99;35.66
43621;BME280;29213;50.770;7.298;2023-03-17T12:50:08;100109.47;;;13.94;35.34
43621;BME280;29213;50.770;7.298;2023-03-17T12:55:25;100091.38;;;13.96;35.26
43621;BME280;29213;50.770;7.298;2023-03-17T13:01:05;100099.38;;;14.45;34.95
43621;BME280;29213;50.770;7.298;2023-03-17T13:03:35;100082.34;;;14.66;35.08
43621;BME280;29213;50.770;7.298;2023-03-17T13:06:05;100050.19;;;14.66;34.32
43621;BME280;29213;50.770;7.298;2023-03-17T13:08:41;100082.16;;;14.94;33.73
43621;BME280;29213;50.770;7.298;2023-03-17T13:11:27;100063.59;;;15.00;33.67
43621;BME280;29213;50.770;7.298;2023-03-17T13:21:32;100011.41;;;15.36;33.21
43621;BME280;29213;50.770;7.298;2023-03-17T13:24:19;100068.00;;;16.07;33.34
43621;BME280;29213;50.770;7.298;2023-03-17T13:29:42;100036.75;;;15.47;32.96
43621;BME280;29213;50.770;7.298;2023-03-17T13:35:18;100063.81;;;14.98;33.71
43621;BME280;29213;50.770;7.298;2023-03-17T13:40:44;100060.91;;;14.66;33.55
43621;BME280;29213;50.770;7.298;2023-03-17T13:46:21;100055.53;;;15.47;33.09
43621;BME280;29213;50.770;7.298;2023-03-17T13:48:49;100023.03;;;15.82;33.17
43621;BME280;29213;50.770;7.298;2023-03-17T13:51:22;100070.84;;;16.19;32.39
43621;BME280;29213;50.770;7.298;2023-03-17T13:53:56;100014.63;;;15.65;32.49
43621;BME280;29213;50.770;7.298;2023-03-17T13:56:24;100059.78;;;15.82;32.41
43621;BME280;29213;50.770;7.298;2023-03-17T14:01:35;100039.84;;;15.57;32.66
43621;BME280;29213;50.770;7.298;2023-03-17T14:04:04;100033.44;;;15.58;32.46
43621;BME280;29213;50.770;7.298;2023-03-17T14:06:30;100013.50;;;15.27;32.08
43621;BME280;29213;50.770;7.298;2023-03-17T14:09:07;100069.81;;;15.14;32.67
43621;BME280;29213;50.770;7.298;2023-03-17T14:11:38;100042.38;;;15.05;33.76
43621;BME280;29213;50.770;7.298;2023-03-17T14:14:15;100043.41;;;14.90;33.50
43621;BME280;29213;50.770;7.298;2023-03-17T14:16:58;100037.00;;;14.78;33.95